Terminal Aerodrome Forecast
Issued by NWS

Home | Current Version | Previous Version | Text Only | Print | Product List | Glossary On
Versions: 1 2 3 4 5 6 7 8 9 10 11 12 13 14 15 16 17 18 19 20 21 22 23 24 25 26 27 28
765
FTUS43 KDLH 191743
TAFHYR
TAF
KHYR 191743Z 1918/2018 19007KT P6SM SKC
      TEMPO 1918/1921 3SM BR BKN004
     FM200000 VRB02KT 5SM BR OVC006
     FM200300 16003KT 2SM -FZDZ BR OVC003
     FM200700 14005KT 1/2SM -FZDZ FG OVC002
     FM201400 14005KT 3/4SM -RASN BR OVC006=

USA.gov is the U.S. government's official web portal to all federal, state and local government web resources and services.